Terminal Aerodrome Forecast
Issued by NWS

Home | Current Version | Previous Version | Text Only | Print | Product List | Glossary On
Versions: 1 2 3 4 5 6 7 8 9 10 11 12 13 14 15 16 17 18 19 20 21 22 23 24 25
000
FTUS41 KPHI 180300 AAB
TAFMIV
TAF AMD
KMIV 180312Z 1803/1824 05006KT P6SM OVC022
     FM181400 07007KT P6SM SCT030 BKN250
     FM181800 09006KT P6SM OVC250=

USA.gov is the U.S. government's official web portal to all federal, state and local government web resources and services.